createdAt,value
2018-09-23T07:21:26.811Z,29.68
2018-09-23T07:22:23.023Z,29.79
2018-09-23T07:23:23.003Z,30.23
2018-09-23T07:24:25.836Z,30.81
2018-09-23T07:25:24.246Z,31.12
2018-09-23T07:26:22.403Z,31.40
2018-09-23T07:28:23.000Z,31.99
2018-09-23T07:29:22.494Z,32.00
2018-09-23T07:31:22.435Z,32.29
2018-09-23T07:32:22.473Z,32.56
2018-09-23T07:33:25.750Z,32.70
2018-09-23T07:34:22.475Z,33.00
2018-09-23T07:35:25.986Z,33.19
2018-09-23T07:37:22.483Z,33.37
2018-09-23T07:38:22.480Z,33.77
2018-09-23T07:39:25.332Z,34.52
2018-09-23T07:40:22.468Z,34.86
2018-09-23T07:42:22.487Z,36.58
2018-09-23T07:43:24.774Z,37.55
2018-09-23T07:44:22.443Z,37.29
2018-09-23T07:45:22.464Z,35.53
2018-09-23T07:48:24.763Z,30.02
2018-09-23T07:49:22.446Z,29.14
2018-09-23T07:50:24.202Z,28.25
2018-09-23T07:52:25.205Z,27.59
2018-09-23T07:53:22.468Z,26.97
2018-09-23T07:54:22.483Z,26.77
2018-09-23T07:55:24.257Z,27.98
2018-09-23T07:56:22.403Z,29.36
2018-09-23T07:57:25.889Z,29.23
2018-09-23T08:00:22.463Z,27.03
2018-09-23T08:01:22.441Z,26.18
2018-09-23T08:02:25.723Z,25.63
2018-09-23T08:03:22.348Z,26.77
2018-09-23T08:05:22.363Z,31.40
2018-09-23T08:06:22.389Z,33.08
2018-09-23T08:09:22.420Z,34.50
2018-09-23T08:11:22.423Z,35.31
2018-09-23T08:12:24.847Z,34.90
2018-09-23T08:13:22.554Z,36.24
2018-09-23T08:14:22.826Z,37.40
2018-09-23T08:16:22.402Z,39.97
2018-09-23T08:17:25.875Z,41.07
2018-09-23T08:18:25.237Z,41.63
2018-09-23T08:20:22.521Z,43.01
2018-09-23T08:21:25.732Z,43.53
2018-09-23T08:22:22.438Z,43.86
2018-09-23T08:23:25.245Z,44.52
2018-09-23T08:24:22.439Z,45.03
2018-09-23T08:52:47.202Z,28.41
2018-09-23T10:54:07.738Z,35.71
2018-09-23T10:54:47.593Z,35.49
2018-09-23T13:00:33.915Z,29.45
2018-09-23T14:25:25.821Z,36.80
2018-09-23T17:13:01.883Z,13.23
2018-09-23T19:01:52.058Z,13.59
2018-09-23T19:43:43.608Z,13.01
2018-09-23T19:44:08.025Z,12.90
2018-09-23T19:45:27.257Z,12.91
2018-09-23T19:46:10.976Z,12.93
2018-09-23T19:47:06.625Z,12.82
2018-09-23T19:48:07.065Z,12.91
2018-09-23T19:49:05.999Z,12.90
2018-09-23T19:50:06.119Z,12.86
2018-09-23T19:51:08.071Z,12.91
2018-09-23T19:52:18.011Z,12.87
2018-09-23T19:55:29.864Z,12.73
2018-09-23T20:02:13.718Z,12.53
2018-09-23T20:03:12.923Z,12.37
2018-09-23T20:09:03.395Z,12.28
2018-09-23T20:09:14.858Z,12.25
2018-09-23T20:11:13.075Z,12.21
2018-09-23T20:13:08.487Z,12.21
2018-09-23T20:14:12.437Z,12.17
2018-09-23T20:20:42.718Z,12.09
2018-09-23T20:22:16.272Z,11.97
2018-09-23T20:23:29.513Z,12.00
2018-09-23T20:24:09.092Z,12.02
2018-09-23T20:25:08.470Z,12.02
2018-09-23T20:26:09.138Z,11.95
2018-09-23T20:27:13.170Z,12.02
2018-09-23T20:28:11.235Z,12.10
2018-09-23T20:29:08.454Z,12.07
2018-09-23T20:30:23.201Z,12.09
2018-09-23T20:31:32.149Z,12.15
2018-09-23T20:32:15.192Z,12.15
2018-09-23T20:37:31.022Z,12.21
2018-09-23T20:37:57.202Z,12.20
2018-09-23T20:40:01.667Z,12.21
2018-09-23T20:40:52.288Z,12.21
2018-09-23T20:45:45.061Z,12.24
2018-09-23T21:02:01.945Z,12.15
2018-09-23T21:08:58.664Z,12.18
2018-09-23T21:09:49.072Z,12.17
2018-09-23T21:12:12.948Z,12.10
2018-09-23T21:13:00.038Z,12.18
2018-09-23T21:14:00.004Z,12.22
2018-09-23T21:15:57.624Z,12.17
2018-09-23T21:16:59.295Z,12.17
2018-09-23T21:17:57.573Z,12.10
2018-09-23T21:20:00.415Z,12.18
2018-09-23T21:21:57.548Z,12.15
2018-09-23T21:22:57.590Z,12.17
2018-09-23T21:23:57.501Z,12.17
2018-09-23T21:24:57.425Z,12.20
2018-09-23T21:26:00.007Z,12.17
2018-09-23T21:26:57.514Z,12.15
2018-09-23T21:27:57.521Z,12.17
2018-09-23T21:28:59.072Z,12.18
2018-09-23T21:29:59.031Z,12.09
2018-09-23T21:30:59.531Z,12.07
2018-09-23T21:31:57.307Z,12.04
2018-09-23T21:32:57.387Z,11.97
2018-09-23T21:33:57.373Z,12.04
2018-09-23T21:34:57.188Z,11.94
2018-09-23T21:35:58.915Z,12.06
2018-09-23T21:36:57.405Z,11.91
2018-09-23T21:37:58.391Z,11.90
2018-09-23T21:40:57.341Z,11.91
2018-09-23T21:41:57.226Z,11.94
2018-09-23T21:43:00.605Z,11.90
2018-09-23T21:43:59.008Z,11.86
2018-09-23T21:44:57.258Z,11.72
2018-09-23T21:45:57.128Z,11.80
2018-09-23T21:47:56.975Z,11.80
2018-09-23T21:48:57.107Z,11.77
2018-09-23T21:49:57.041Z,11.72
2018-09-23T21:50:57.214Z,11.65
2018-09-23T21:51:57.189Z,11.72
2018-09-23T21:52:57.219Z,11.62
2018-09-23T21:54:57.145Z,11.62
2018-09-23T21:55:57.130Z,11.59
2018-09-23T21:56:56.965Z,11.63
2018-09-23T21:57:58.883Z,11.60
2018-09-23T21:58:57.112Z,11.54
2018-09-23T21:59:57.060Z,11.52
2018-09-23T22:00:59.411Z,11.47
2018-09-23T22:01:56.999Z,11.52
2018-09-23T22:02:57.016Z,11.47
2018-09-23T22:03:57.023Z,11.50
2018-09-23T22:04:58.846Z,11.45
2018-09-23T22:05:56.949Z,11.50
2018-09-23T22:06:57.899Z,11.47
2018-09-23T22:07:56.848Z,11.50
2018-09-23T22:08:56.937Z,11.44
2018-09-23T22:09:57.946Z,11.48
2018-09-23T22:10:56.863Z,11.48
2018-09-23T22:11:56.885Z,11.43
2018-09-23T22:12:56.803Z,11.40
2018-09-23T22:13:56.810Z,11.45
2018-09-23T22:14:58.437Z,11.36
2018-09-23T22:15:56.681Z,11.33
2018-09-23T22:16:56.792Z,11.32
2018-09-23T22:18:56.708Z,11.23
2018-09-23T22:20:56.736Z,11.19
2018-09-23T22:21:58.488Z,11.22
2018-09-23T22:23:56.744Z,11.18
2018-09-23T22:24:56.657Z,11.15
2018-09-23T22:25:58.499Z,11.19
2018-09-23T22:26:58.444Z,11.17
2018-09-23T22:27:56.589Z,11.08
2018-09-23T22:28:56.694Z,11.17
2018-09-23T22:29:56.585Z,11.12
2018-09-23T22:30:56.610Z,11.12
2018-09-23T22:31:56.526Z,11.08
2018-09-23T22:32:56.532Z,11.05
2018-09-23T22:33:56.528Z,11.05
2018-09-23T22:34:56.557Z,11.08
2018-09-23T22:35:59.054Z,11.08
2018-09-23T22:36:56.527Z,11.14
2018-09-23T22:38:56.396Z,11.05
2018-09-23T22:39:56.509Z,11.08
2018-09-23T22:40:56.515Z,11.05
2018-09-23T22:42:57.494Z,11.08
2018-09-23T22:45:51.468Z,10.99
2018-09-23T22:48:22.792Z,10.86
2018-09-23T22:48:59.014Z,10.92
2018-09-23T22:52:06.985Z,10.89
2018-09-23T22:53:11.826Z,10.94
2018-09-23T22:54:07.081Z,10.89
2018-09-23T22:55:17.943Z,10.86
2018-09-23T22:56:06.929Z,10.93
2018-09-23T22:57:07.012Z,10.92
2018-09-23T22:58:07.353Z,10.90
2018-09-23T22:59:07.293Z,10.76
2018-09-23T23:00:27.921Z,10.78
2018-09-23T23:01:06.721Z,10.84
2018-09-23T23:03:27.896Z,10.92
2018-09-23T23:05:21.374Z,10.75
2018-09-23T23:06:06.752Z,10.92
2018-09-23T23:07:06.719Z,10.79
2018-09-23T23:08:06.726Z,10.90
2018-09-23T23:09:17.462Z,10.78
2018-09-23T23:12:43.714Z,10.74
2018-09-23T23:13:47.312Z,10.79
2018-09-23T23:14:33.181Z,10.81
2018-09-23T23:17:16.353Z,10.79
2018-09-23T23:18:07.754Z,10.72
2018-09-23T23:20:05.132Z,10.78
2018-09-23T23:21:00.661Z,10.71
2018-09-23T23:24:14.724Z,10.71
2018-09-23T23:26:52.912Z,10.72
2018-09-23T23:27:43.049Z,10.67
2018-09-23T23:29:49.702Z,10.64
2018-09-23T23:30:37.178Z,10.69
2018-09-23T23:33:41.611Z,10.69
2018-09-23T23:35:26.817Z,10.59
2018-09-23T23:36:24.150Z,10.60
2018-09-23T23:38:41.475Z,10.57
2018-09-23T23:40:47.278Z,10.46
2018-09-23T23:41:48.911Z,10.46
2018-09-23T23:42:53.964Z,10.53
2018-09-23T23:43:47.211Z,10.54
2018-09-23T23:44:57.940Z,10.49
2018-09-23T23:45:47.252Z,10.46
2018-09-23T23:46:47.206Z,10.53
2018-09-23T23:48:08.108Z,10.51
2018-09-23T23:48:47.997Z,10.48
2018-09-23T23:49:51.956Z,10.46
2018-09-23T23:50:49.932Z,10.48
2018-09-23T23:51:47.172Z,10.46
2018-09-23T23:52:47.173Z,10.42
2018-09-23T23:55:08.000Z,10.48
2018-09-23T23:55:47.069Z,10.35
2018-09-23T23:56:57.907Z,10.48
2018-09-23T23:57:46.978Z,10.40
2018-09-23T23:58:48.993Z,10.41
2018-09-23T23:59:48.898Z,10.53
